createdAt,value
2018-05-11T00:00:16.408Z,101847.86
2018-05-11T00:02:43.053Z,101843.19
2018-05-11T00:05:09.689Z,101848.83
2018-05-11T00:07:36.368Z,101845.34
2018-05-11T00:10:03.021Z,101843.30
2018-05-11T00:12:29.684Z,101840.34
2018-05-11T00:14:56.299Z,101843.87
2018-05-11T00:17:22.926Z,101844.72
2018-05-11T00:19:49.631Z,101844.75
2018-05-11T00:22:17.232Z,101848.20
2018-05-11T00:24:43.863Z,101844.31
2018-05-11T00:27:10.499Z,101846.09
2018-05-11T00:29:37.145Z,101854.81
2018-05-11T00:32:03.755Z,101852.12
2018-05-11T00:34:31.169Z,101858.07
2018-05-11T00:36:58.685Z,101844.25
2018-05-11T00:39:25.488Z,101847.27
2018-05-11T00:41:52.088Z,101854.00
2018-05-11T00:44:18.763Z,101845.88
2018-05-11T00:46:45.392Z,101848.67
2018-05-11T00:49:12.055Z,101850.20
2018-05-11T00:51:39.437Z,101857.30
2018-05-11T00:54:06.069Z,101848.11
2018-05-11T00:56:33.538Z,101855.05
2018-05-11T00:59:00.197Z,101860.80
2018-05-11T01:01:27.752Z,101854.92
2018-05-11T01:03:54.456Z,101857.80
2018-05-11T01:06:21.854Z,101855.61
2018-05-11T01:08:48.609Z,101852.05
2018-05-11T01:11:15.234Z,101860.87
2018-05-11T01:13:41.963Z,101861.53
2018-05-11T01:16:08.577Z,101854.72
2018-05-11T01:18:35.368Z,101854.97
2018-05-11T01:21:02.057Z,101859.00
2018-05-11T01:23:29.561Z,101861.30
2018-05-11T01:25:56.202Z,101854.92
2018-05-11T01:28:22.858Z,101865.27
2018-05-11T01:30:49.741Z,101864.33
2018-05-11T01:33:16.385Z,101863.65
2018-05-11T01:35:43.057Z,101868.01
2018-05-11T01:38:09.691Z,101863.83
2018-05-11T01:40:37.210Z,101857.22
2018-05-11T01:43:04.743Z,101856.81
2018-05-11T01:45:31.365Z,101857.53
2018-05-11T01:47:58.191Z,101858.14
2018-05-11T01:50:24.836Z,101849.89
2018-05-11T01:52:51.600Z,101855.38
2018-05-11T01:55:18.257Z,101860.96
2018-05-11T01:57:45.605Z,101865.97
2018-05-11T02:00:12.225Z,101867.95
2018-05-11T02:02:38.948Z,101865.92
2018-05-11T02:05:05.596Z,101865.11
2018-05-11T02:07:32.377Z,101861.26
2018-05-11T02:09:59.956Z,101864.97
2018-05-11T02:12:26.638Z,101866.73
2018-05-11T02:14:54.044Z,101865.96
2018-05-11T02:17:21.447Z,101866.20
2018-05-11T02:19:48.102Z,101863.52
2018-05-11T02:22:14.767Z,101865.58
2018-05-11T02:24:42.184Z,101861.05
2018-05-11T02:27:08.812Z,101857.58
2018-05-11T02:29:35.531Z,101862.52
2018-05-11T02:32:02.274Z,101860.64
2018-05-11T02:34:28.904Z,101865.58
2018-05-11T02:36:55.574Z,101863.46
2018-05-11T02:39:22.347Z,101860.11
2018-05-11T02:41:49.639Z,101862.66
2018-05-11T02:44:16.338Z,101857.16
2018-05-11T02:46:42.980Z,101857.69
2018-05-11T02:49:09.841Z,101858.75
2018-05-11T02:51:37.273Z,101864.08
2018-05-11T02:54:03.895Z,101858.31
2018-05-11T02:56:30.630Z,101855.49
2018-05-11T02:58:57.274Z,101855.84
2018-05-11T03:01:24.064Z,101859.45
2018-05-11T03:03:51.424Z,101857.83
2018-05-11T03:06:18.399Z,101853.84
2018-05-11T03:08:45.035Z,101859.99
2018-05-11T03:11:11.985Z,101857.03
2018-05-11T03:13:38.647Z,101856.92
2018-05-11T03:16:05.267Z,101861.58
2018-05-11T03:18:32.116Z,101860.50
2018-05-11T03:20:58.865Z,101867.31
2018-05-11T03:23:25.672Z,101874.11
2018-05-11T03:25:52.451Z,101867.81
2018-05-11T03:28:19.173Z,101871.39
2018-05-11T03:30:45.877Z,101877.05
2018-05-11T03:33:12.535Z,101877.08
2018-05-11T03:35:39.229Z,101877.88
2018-05-11T03:38:05.900Z,101879.90
2018-05-11T03:40:32.538Z,101880.57
2018-05-11T03:42:59.170Z,101880.38
2018-05-11T03:45:25.938Z,101874.49
2018-05-11T03:47:52.588Z,101875.53
2018-05-11T03:50:19.215Z,101881.57
2018-05-11T03:52:45.869Z,101876.10
2018-05-11T03:55:12.491Z,101877.97
2018-05-11T03:57:39.153Z,101880.36
2018-05-11T04:00:05.875Z,101885.69
2018-05-11T04:02:51.767Z,101886.23
2018-05-11T04:05:36.853Z,101886.73
2018-05-11T04:08:22.220Z,101879.62
2018-05-11T04:10:49.205Z,101887.78
2018-05-11T04:13:15.805Z,101885.74
2018-05-11T04:15:43.160Z,101882.84
2018-05-11T04:18:10.603Z,101884.05
2018-05-11T04:20:38.032Z,101886.77
2018-05-11T04:23:04.553Z,101885.69
2018-05-11T04:25:31.275Z,101890.81
2018-05-11T04:27:57.930Z,101894.86
2018-05-11T04:30:24.602Z,101896.47
2018-05-11T04:32:51.218Z,101893.77
2018-05-11T04:35:17.933Z,101896.04
2018-05-11T04:37:44.718Z,101896.06
2018-05-11T04:40:12.090Z,101898.04
2018-05-11T04:42:38.709Z,101898.59
2018-05-11T04:45:06.068Z,101901.29
2018-05-11T04:47:33.414Z,101907.56
2018-05-11T04:50:00.808Z,101900.28
2018-05-11T04:52:27.526Z,101898.64
2018-05-11T04:54:54.393Z,101905.63
2018-05-11T04:57:21.006Z,101898.81
2018-05-11T04:59:48.376Z,101902.30
2018-05-11T05:02:15.213Z,101906.22
2018-05-11T05:04:41.930Z,101909.01
2018-05-11T05:07:09.279Z,101911.84
2018-05-11T05:09:36.602Z,101906.36
2018-05-11T05:12:03.249Z,101907.41
2018-05-11T05:14:29.862Z,101910.77
2018-05-11T05:16:56.598Z,101915.18
2018-05-11T05:19:23.367Z,101919.59
2018-05-11T05:21:49.966Z,101909.29
2018-05-11T05:24:16.658Z,101904.89
2018-05-11T05:26:44.574Z,101907.58
2018-05-11T05:29:11.159Z,101909.56
2018-05-11T05:31:37.867Z,101909.23
2018-05-11T05:34:04.442Z,101907.86
2018-05-11T05:36:31.138Z,101910.10
2018-05-11T05:38:57.827Z,101909.49
2018-05-11T05:41:24.473Z,101907.95
2018-05-11T05:43:51.201Z,101913.59
2018-05-11T05:46:18.587Z,101908.33
2018-05-11T05:48:45.292Z,101918.47
2018-05-11T05:51:11.932Z,101911.34
2018-05-11T05:53:38.756Z,101909.36
2018-05-11T05:56:05.432Z,101909.77
2018-05-11T05:58:32.036Z,101905.88
2018-05-11T06:00:58.767Z,101902.70
2018-05-11T06:03:25.458Z,101907.52
2018-05-11T06:05:52.058Z,101898.96
2018-05-11T06:08:18.808Z,101899.77
2018-05-11T06:10:45.427Z,101898.55
2018-05-11T06:13:12.513Z,101901.28
2018-05-11T06:15:39.468Z,101898.63
2018-05-11T06:18:06.004Z,101894.14
2018-05-11T06:20:32.725Z,101897.52
2018-05-11T06:22:59.438Z,101898.64
2018-05-11T06:25:26.032Z,101904.28
2018-05-11T06:27:52.764Z,101907.48
2018-05-11T06:30:19.316Z,101904.75
2018-05-11T06:32:46.031Z,101902.27
2018-05-11T06:35:12.885Z,101900.06
2018-05-11T06:37:39.588Z,101904.34
2018-05-11T06:40:06.909Z,101898.18
2018-05-11T06:42:33.645Z,101892.22
2018-05-11T06:45:00.332Z,101894.19
2018-05-11T06:47:26.931Z,101896.47
2018-05-11T06:49:53.609Z,101892.59
2018-05-11T06:52:20.366Z,101890.55
2018-05-11T06:54:46.974Z,101889.17
2018-05-11T06:57:14.295Z,101890.48
2018-05-11T06:59:41.048Z,101892.95
2018-05-11T07:02:07.783Z,101884.77
2018-05-11T07:04:34.449Z,101882.36
2018-05-11T07:07:01.794Z,101884.67
2018-05-11T07:09:29.175Z,101878.22
2018-05-11T07:11:55.957Z,101881.06
2018-05-11T07:14:22.616Z,101868.47
2018-05-11T07:16:49.330Z,101877.09
2018-05-11T07:19:15.944Z,101874.03
2018-05-11T07:21:42.604Z,101879.86
2018-05-11T07:24:09.185Z,101875.78
2018-05-11T07:26:36.715Z,101870.08
2018-05-11T07:29:03.468Z,101872.08
2018-05-11T07:31:30.729Z,101871.45
2018-05-11T07:33:58.110Z,101872.45
2018-05-11T07:36:24.728Z,101878.84
2018-05-11T07:38:52.039Z,101876.03
2018-05-11T07:41:18.778Z,101869.36
2018-05-11T07:43:46.103Z,101859.71
2018-05-11T07:46:12.854Z,101857.58
2018-05-11T07:48:39.471Z,101853.72
2018-05-11T07:51:06.324Z,101858.69
2018-05-11T07:53:32.979Z,101857.19
2018-05-11T07:56:00.340Z,101857.89
2018-05-11T07:58:27.010Z,101856.39
2018-05-11T08:00:53.710Z,101849.50
2018-05-11T08:03:20.364Z,101849.20
2018-05-11T08:05:47.045Z,101853.45
2018-05-11T08:08:14.481Z,101847.17
2018-05-11T08:10:41.329Z,101847.31
2018-05-11T08:13:07.966Z,101841.34
2018-05-11T08:15:34.606Z,101838.73
2018-05-11T08:18:01.305Z,101838.39
2018-05-11T08:20:27.954Z,101835.73
2018-05-11T08:22:54.670Z,101836.73
2018-05-11T08:25:21.260Z,101835.72
2018-05-11T08:27:48.183Z,101833.52
2018-05-11T08:30:14.827Z,101832.06
2018-05-11T08:32:41.638Z,101826.34
2018-05-11T08:35:08.400Z,101827.14
2018-05-11T08:37:36.131Z,101829.27
2018-05-11T08:40:02.787Z,101825.72
2018-05-11T08:42:30.671Z,101819.28
2018-05-11T08:44:57.301Z,101826.98
2018-05-11T08:47:23.931Z,101817.77
2018-05-11T08:49:50.659Z,101818.75
2018-05-11T08:52:17.345Z,101818.71
2018-05-11T08:54:44.778Z,101813.99
2018-05-11T08:57:12.262Z,101807.45
2018-05-11T08:59:38.818Z,101806.78
2018-05-11T09:02:05.430Z,101798.16
2018-05-11T09:04:32.069Z,101803.09
2018-05-11T09:06:58.770Z,101794.67
2018-05-11T09:09:25.391Z,101798.33
2018-05-11T09:11:52.006Z,101799.13
2018-05-11T09:14:18.619Z,101799.92
2018-05-11T09:16:45.319Z,101793.31
2018-05-11T09:19:11.993Z,101800.52
2018-05-11T09:21:38.581Z,101793.09
2018-05-11T09:24:05.339Z,101783.55
2018-05-11T09:26:32.076Z,101783.38
2018-05-11T09:28:58.758Z,101780.81
2018-05-11T09:31:25.394Z,101778.23
2018-05-11T09:33:53.265Z,101782.25
2018-05-11T09:36:19.869Z,101779.91
2018-05-11T09:38:46.527Z,101777.62
2018-05-11T09:41:13.127Z,101767.70
2018-05-11T09:43:39.758Z,101768.09
2018-05-11T09:46:07.211Z,101763.91
2018-05-11T09:48:33.906Z,101763.28
2018-05-11T09:51:00.550Z,101769.70
2018-05-11T09:53:27.258Z,101769.10
2018-05-11T09:55:53.938Z,101762.09
2018-05-11T09:58:21.383Z,101766.11
2018-05-11T10:00:48.047Z,101756.11
2018-05-11T10:03:15.463Z,101757.28
2018-05-11T10:05:42.209Z,101754.14
2018-05-11T10:08:09.666Z,101755.61
2018-05-11T10:10:36.338Z,101759.48
2018-05-11T10:13:02.931Z,101747.98
2018-05-11T10:15:29.666Z,101747.94
2018-05-11T10:17:56.264Z,101750.83
2018-05-11T10:20:23.650Z,101745.20
2018-05-11T10:22:50.279Z,101743.44
2018-05-11T10:25:16.889Z,101739.61
2018-05-11T10:27:43.579Z,101737.92
2018-05-11T10:30:10.274Z,101729.67
2018-05-11T10:32:36.904Z,101727.66
2018-05-11T10:35:03.623Z,101727.66
2018-05-11T10:37:31.132Z,101724.28
2018-05-11T10:39:57.841Z,101720.18
2018-05-11T10:42:26.077Z,101721.98
2018-05-11T10:44:52.787Z,101716.42
2018-05-11T10:47:19.394Z,101721.46
2018-05-11T10:49:46.746Z,101712.26
2018-05-11T10:52:13.575Z,101710.18
2018-05-11T10:54:40.218Z,101711.77
2018-05-11T10:57:06.867Z,101702.66
2018-05-11T10:59:33.538Z,101698.73
2018-05-11T11:02:00.279Z,101693.59
2018-05-11T11:04:27.065Z,101692.47
2018-05-11T11:06:54.596Z,101693.02
2018-05-11T11:09:21.249Z,101689.72
2018-05-11T11:11:48.605Z,101692.39
2018-05-11T11:14:16.008Z,101681.47
2018-05-11T11:16:42.621Z,101687.41
2018-05-11T11:19:09.303Z,101686.98
2018-05-11T11:21:35.991Z,101687.94
2018-05-11T11:24:02.770Z,101680.67
2018-05-11T11:26:30.267Z,101676.64
2018-05-11T11:28:56.884Z,101683.86
2018-05-11T11:31:24.376Z,101672.09
2018-05-11T11:33:51.881Z,101669.12
2018-05-11T11:36:18.599Z,101675.61
2018-05-11T11:38:45.182Z,101666.95
2018-05-11T11:41:11.819Z,101661.87
2018-05-11T11:43:38.640Z,101655.41
2018-05-11T11:46:05.278Z,101650.33
2018-05-11T11:48:31.895Z,101645.39
2018-05-11T11:50:58.502Z,101640.42
2018-05-11T11:53:25.988Z,101640.93
2018-05-11T11:55:52.769Z,101633.77
2018-05-11T11:58:19.545Z,101630.70
2018-05-11T12:00:47.004Z,101638.91
2018-05-11T12:03:13.918Z,101627.45
2018-05-11T12:05:40.634Z,101624.70
2018-05-11T12:08:07.248Z,101615.34
2018-05-11T12:10:34.058Z,101611.06
2018-05-11T12:13:01.411Z,101618.22
2018-05-11T12:15:28.845Z,101613.17
2018-05-11T12:17:55.410Z,101604.16
2018-05-11T12:20:22.783Z,101599.41
2018-05-11T12:22:49.428Z,101602.27
2018-05-11T12:25:16.918Z,101601.05
2018-05-11T12:27:43.522Z,101593.46
2018-05-11T12:30:10.129Z,101604.56
2018-05-11T12:32:37.521Z,101599.22
2018-05-11T12:35:04.111Z,101585.70
2018-05-11T12:37:31.446Z,101591.30
2018-05-11T12:39:58.059Z,101593.81
2018-05-11T12:42:24.911Z,101595.91
2018-05-11T12:44:51.614Z,101585.64
2018-05-11T12:47:18.465Z,101595.19
2018-05-11T12:49:45.132Z,101586.99
2018-05-11T12:52:11.791Z,101589.88
2018-05-11T12:54:38.456Z,101583.05
2018-05-11T12:57:05.132Z,101579.63
2018-05-11T12:59:31.815Z,101570.77
2018-05-11T13:01:58.593Z,101571.82
2018-05-11T13:04:25.257Z,101563.58
2018-05-11T13:06:51.887Z,101560.42
2018-05-11T13:09:18.579Z,101551.86
2018-05-11T13:11:45.922Z,101549.87
2018-05-11T13:14:12.511Z,101554.18
2018-05-11T13:16:39.104Z,101547.12
2018-05-11T13:19:05.746Z,101542.69
2018-05-11T13:21:33.110Z,101536.16
2018-05-11T13:24:00.466Z,101542.13
2018-05-11T13:26:27.074Z,101536.22
2018-05-11T13:28:54.541Z,101532.77
2018-05-11T13:31:21.304Z,101528.02
2018-05-11T13:33:47.896Z,101532.92
2018-05-11T13:36:14.482Z,101527.82
2018-05-11T13:38:41.214Z,101533.92
2018-05-11T13:41:08.535Z,101522.86
2018-05-11T13:43:35.140Z,101513.92
2018-05-11T13:46:01.799Z,101526.52
2018-05-11T13:48:28.524Z,101512.43
2018-05-11T13:50:55.083Z,101519.91
2018-05-11T13:53:21.798Z,101522.81
2018-05-11T13:55:48.608Z,101511.38
2018-05-11T13:58:15.383Z,101512.73
2018-05-11T14:00:41.985Z,101515.32
2018-05-11T14:03:08.685Z,101508.77
2018-05-11T14:05:35.302Z,101504.89
2018-05-11T14:08:01.994Z,101500.71
2018-05-11T14:10:28.632Z,101503.31
2018-05-11T14:12:55.245Z,101501.95
2018-05-11T14:15:21.886Z,101498.22
2018-05-11T14:17:49.336Z,101499.67
2018-05-11T14:20:16.813Z,101495.23
2018-05-11T14:22:44.412Z,101499.63
2018-05-11T14:25:11.606Z,101484.61
2018-05-11T14:27:38.294Z,101488.20
2018-05-11T14:30:04.918Z,101491.63
2018-05-11T14:32:31.667Z,101485.86
2018-05-11T14:34:58.270Z,101481.03
2018-05-11T14:37:25.658Z,101477.95
2018-05-11T14:39:52.436Z,101473.69
2018-05-11T14:42:19.082Z,101483.48
2018-05-11T14:44:45.870Z,101477.80
2018-05-11T14:47:12.570Z,101470.80
2018-05-11T14:49:39.307Z,101469.70
2018-05-11T14:52:06.031Z,101465.30
2018-05-11T14:54:32.681Z,101462.92
2018-05-11T14:56:59.303Z,101451.77
2018-05-11T14:59:25.969Z,101456.43
2018-05-11T15:01:52.600Z,101457.23
2018-05-11T15:04:19.322Z,101446.47
2018-05-11T15:06:48.475Z,101440.66
2018-05-11T15:09:15.081Z,101440.52
2018-05-11T15:11:41.878Z,101442.41
2018-05-11T15:14:08.468Z,101435.11
2018-05-11T15:16:35.849Z,101437.70
2018-05-11T15:19:02.468Z,101430.75
2018-05-11T15:21:29.816Z,101438.11
